Time;durP1;ratioP1;P1;durP2;ratioP2;P2;SDS_P1;SDS_P2;PMS_P1;PMS_P2;Temp;Humidity;BMP_temperature;BMP_pressure;BME280_temperature;BME280_humidity;BME280_pressure;Samples;Min_cycle;Max_cycle;Signal;HPM_P1;HPM_P2
2023/08/05 00:00:59;;;;;;;7.10;4.88;;;13.90;99.90;;;;;;5067862;28;20059;-68
2023/08/05 00:03:25;;;;;;;11.45;5.22;;;13.80;99.90;;;;;;5069618;28;20044;-68
2023/08/05 00:05:51;;;;;;;10.27;5.10;;;13.90;99.90;;;;;;5068019;28;20075;-67
2023/08/05 00:08:16;;;;;;;10.95;5.25;;;13.90;99.90;;;;;;5069498;28;20094;-67
2023/08/05 00:10:46;;;;;;;9.95;5.68;;;13.90;99.90;;;;;;5067964;28;20045;-67
2023/08/05 00:13:12;;;;;;;8.88;4.82;;;13.90;99.90;;;;;;5068195;28;20079;-67
2023/08/05 00:15:39;;;;;;;8.82;4.82;;;13.90;99.90;;;;;;5068773;28;20037;-67
2023/08/05 00:18:04;;;;;;;12.10;4.90;;;14.00;99.90;;;;;;5067608;28;20047;-67
2023/08/05 00:20:30;;;;;;;10.70;4.93;;;14.00;99.90;;;;;;5069497;28;20032;-67
2023/08/05 00:22:56;;;;;;;6.68;4.45;;;14.00;99.90;;;;;;5069160;28;20836;-67
2023/08/05 00:25:22;;;;;;;8.88;4.40;;;14.00;99.90;;;;;;5069449;28;20051;-67
2023/08/05 00:27:47;;;;;;;8.55;4.43;;;14.00;99.90;;;;;;5069418;28;20040;-67
2023/08/05 00:30:13;;;;;;;7.50;4.80;;;14.00;99.90;;;;;;5070742;28;20055;-67
2023/08/05 00:32:39;;;;;;;6.72;4.38;;;14.00;99.90;;;;;;5072943;28;20441;-67
2023/08/05 00:35:06;;;;;;;7.60;4.40;;;14.00;99.90;;;;;;5073243;28;20037;-67
2023/08/05 00:37:32;;;;;;;11.02;5.40;;;14.00;99.90;;;;;;5072797;28;20580;-67
2023/08/05 00:39:59;;;;;;;9.77;4.13;;;14.00;99.90;;;;;;5073018;28;20044;-67
2023/08/05 00:42:28;;;;;;;11.52;4.57;;;14.00;99.90;;;;;;5071604;28;20041;-67
2023/08/05 00:44:54;;;;;;;11.40;4.88;;;14.00;99.90;;;;;;5073127;28;20528;-67
2023/08/05 00:47:19;;;;;;;8.70;4.50;;;14.00;99.90;;;;;;5071421;28;20044;-67
2023/08/05 00:49:51;;;;;;;11.93;4.93;;;14.00;99.90;;;;;;5055001;28;20090;-67
2023/08/05 00:52:18;;;;;;;7.28;4.65;;;14.00;99.90;;;;;;5072697;28;20051;-68
2023/08/05 00:54:44;;;;;;;6.30;4.30;;;14.00;99.90;;;;;;5072684;28;20063;-67
2023/08/05 00:57:11;;;;;;;11.85;4.68;;;14.00;99.90;;;;;;5072395;28;20411;-67
2023/08/05 00:59:37;;;;;;;15.60;5.47;;;14.00;99.90;;;;;;5072266;28;20053;-67
2023/08/05 01:02:03;;;;;;;9.13;5.00;;;13.90;99.90;;;;;;5072561;28;20396;-68
2023/08/05 01:04:29;;;;;;;8.52;4.50;;;13.90;99.90;;;;;;5072516;28;20032;-67
2023/08/05 01:06:56;;;;;;;8.05;4.30;;;13.90;99.90;;;;;;5072503;28;20062;-67
2023/08/05 01:09:22;;;;;;;10.32;4.28;;;13.90;99.90;;;;;;5070994;28;20048;-67
2023/08/05 01:11:48;;;;;;;7.72;4.63;;;14.00;99.90;;;;;;5072484;28;20510;-67
2023/08/05 01:14:14;;;;;;;9.40;4.47;;;13.90;99.90;;;;;;5072457;28;20048;-67
2023/08/05 01:16:39;;;;;;;9.65;5.10;;;13.90;99.90;;;;;;5072053;28;20052;-67
2023/08/05 01:19:12;;;;;;;7.88;4.63;;;13.80;99.90;;;;;;5072076;28;20495;-67
2023/08/05 01:21:51;;;;;;;11.15;4.18;;;13.80;99.90;;;;;;5072428;28;20063;-67
2023/08/05 01:24:31;;;;;;;7.78;4.40;;;13.70;99.90;;;;;;5070492;28;20139;-67
2023/08/05 01:26:58;;;;;;;9.55;4.25;;;13.60;99.90;;;;;;5070205;28;20036;-67
2023/08/05 01:29:24;;;;;;;9.57;5.40;;;13.50;99.90;;;;;;5072092;28;20505;-67
2023/08/05 01:31:52;;;;;;;9.07;4.80;;;13.40;99.90;;;;;;5072312;28;20106;-67
2023/08/05 01:34:18;;;;;;;12.45;5.18;;;13.50;99.90;;;;;;5072298;28;20041;-67
2023/08/05 01:36:44;;;;;;;11.38;4.97;;;13.50;99.90;;;;;;5071641;28;20119;-67
2023/08/05 01:39:09;;;;;;;9.32;4.70;;;13.40;99.90;;;;;;5071627;28;20499;-67
2023/08/05 01:41:35;;;;;;;12.25;4.93;;;13.40;99.90;;;;;;5071262;28;20044;-67
2023/08/05 01:44:00;;;;;;;8.88;4.65;;;13.40;99.90;;;;;;5072089;28;20028;-67
2023/08/05 01:46:26;;;;;;;9.18;4.90;;;13.30;99.90;;;;;;5070799;28;20114;-67
2023/08/05 01:48:52;;;;;;;10.20;4.72;;;13.20;99.90;;;;;;5072090;28;20123;-67
2023/08/05 01:51:17;;;;;;;11.98;4.35;;;13.30;99.90;;;;;;5070466;28;20039;-67
2023/08/05 01:53:43;;;;;;;6.75;4.90;;;13.10;99.90;;;;;;5071145;28;20090;-67
2023/08/05 01:56:09;;;;;;;9.73;4.97;;;13.10;99.90;;;;;;5070219;28;20495;-68
2023/08/05 01:58:34;;;;;;;10.48;4.65;;;13.00;99.90;;;;;;5069969;28;20053;-67
2023/08/05 02:01:00;;;;;;;10.35;4.22;;;12.90;99.90;;;;;;5064179;28;20373;-67
2023/08/05 02:03:25;;;;;;;6.85;4.10;;;12.90;99.90;;;;;;5069959;28;20040;-67
2023/08/05 02:05:51;;;;;;;9.20;4.68;;;13.00;99.90;;;;;;5071995;28;20040;-67
2023/08/05 02:08:17;;;;;;;8.55;4.72;;;12.90;99.90;;;;;;5071697;28;20510;-67
2023/08/05 02:10:42;;;;;;;8.52;4.63;;;12.80;99.90;;;;;;5070428;28;20056;-67
2023/08/05 02:13:08;;;;;;;9.57;5.28;;;12.70;99.90;;;;;;5071533;28;20041;-67
2023/08/05 02:15:34;;;;;;;14.55;5.28;;;12.70;99.90;;;;;;5071020;28;20123;-65
2023/08/05 02:17:59;;;;;;;9.27;5.00;;;12.90;99.90;;;;;;5071258;28;20040;-67
2023/08/05 02:20:25;;;;;;;10.77;5.28;;;12.70;99.90;;;;;;5071442;28;20131;-67
2023/08/05 02:22:51;;;;;;;8.00;4.20;;;12.60;99.90;;;;;;5070941;28;20052;-66
2023/08/05 02:25:16;;;;;;;11.93;4.30;;;12.70;99.90;;;;;;5070342;28;20033;-67
2023/08/05 02:27:42;;;;;;;9.15;4.80;;;12.60;99.90;;;;;;5071083;28;20443;-67
2023/08/05 02:30:10;;;;;;;6.15;3.88;;;12.50;99.90;;;;;;5070660;28;20051;-67
2023/08/05 02:32:36;;;;;;;6.22;4.07;;;12.50;99.90;;;;;;5070594;28;20063;-67
2023/08/05 02:35:02;;;;;;;5.47;4.03;;;12.50;99.90;;;;;;5070942;28;20673;-67
2023/08/05 02:37:27;;;;;;;13.80;4.65;;;12.40;99.90;;;;;;5070976;28;20040;-67
2023/08/05 02:39:53;;;;;;;8.60;4.47;;;12.40;99.90;;;;;;5070824;28;20045;-68
2023/08/05 02:42:19;;;;;;;6.55;4.13;;;12.40;99.90;;;;;;5070780;28;20044;-67
2023/08/05 02:44:44;;;;;;;8.25;4.50;;;12.40;99.90;;;;;;5070680;28;20062;-67
2023/08/05 02:47:10;;;;;;;12.15;4.80;;;12.40;99.90;;;;;;5070104;28;20066;-67
2023/08/05 02:49:36;;;;;;;12.35;5.47;;;12.40;99.90;;;;;;5071090;28;20047;-67
2023/08/05 02:52:02;;;;;;;9.38;5.15;;;12.40;99.90;;;;;;5069459;28;20124;-66
2023/08/05 02:54:28;;;;;;;14.05;5.97;;;12.40;99.90;;;;;;5069687;28;20436;-67
2023/08/05 02:56:53;;;;;;;9.88;5.65;;;12.40;99.90;;;;;;5068636;28;20060;-67
2023/08/05 02:59:19;;;;;;;10.98;6.22;;;12.40;99.90;;;;;;5068769;28;20056;-67
2023/08/05 03:01:45;;;;;;;11.90;6.00;;;12.70;99.90;;;;;;5070322;28;20044;-67
2023/08/05 03:04:10;;;;;;;12.35;6.90;;;12.50;99.90;;;;;;5070333;28;20044;-67
2023/08/05 03:06:36;;;;;;;8.93;5.88;;;12.50;99.90;;;;;;5069117;28;20041;-67
2023/08/05 03:09:02;;;;;;;10.38;5.85;;;12.60;99.90;;;;;;5070062;28;20079;-67
2023/08/05 03:11:31;;;;;;;16.50;6.00;;;12.60;99.90;;;;;;5069338;28;20807;-67
2023/08/05 03:13:57;;;;;;;13.25;6.60;;;12.60;99.90;;;;;;5070099;28;20048;-67
2023/08/05 03:16:23;;;;;;;10.73;5.78;;;12.70;99.90;;;;;;5069179;28;20037;-67
2023/08/05 03:18:48;;;;;;;9.40;5.55;;;12.70;99.90;;;;;;5070084;28;20376;-66
2023/08/05 03:21:14;;;;;;;8.98;5.32;;;12.80;99.90;;;;;;5070228;28;20064;-67
2023/08/05 03:23:40;;;;;;;9.63;5.72;;;12.70;99.90;;;;;;5069857;28;20079;-68
2023/08/05 03:26:05;;;;;;;9.98;5.35;;;12.80;99.90;;;;;;5069970;28;20036;-67
2023/08/05 03:28:31;;;;;;;12.27;5.43;;;12.80;99.90;;;;;;5069536;28;20048;-67
2023/08/05 03:30:57;;;;;;;10.20;6.05;;;12.80;99.90;;;;;;5069510;28;20048;-67
2023/08/05 03:33:23;;;;;;;10.75;5.60;;;12.80;99.90;;;;;;5070053;28;20127;-67
2023/08/05 03:35:48;;;;;;;10.98;6.20;;;12.90;99.90;;;;;;5069454;28;20052;-67
2023/08/05 03:38:14;;;;;;;10.25;5.75;;;12.90;99.90;;;;;;5069901;28;20036;-67
2023/08/05 03:40:40;;;;;;;11.60;6.43;;;13.00;99.90;;;;;;5068502;28;20048;-67
2023/08/05 03:43:06;;;;;;;10.13;6.13;;;13.00;99.90;;;;;;5069672;28;20119;-67
2023/08/05 03:45:31;;;;;;;8.80;5.55;;;13.00;99.90;;;;;;5069544;28;20040;-67
2023/08/05 03:47:57;;;;;;;13.00;6.28;;;13.00;99.90;;;;;;5068818;28;20499;-67
2023/08/05 03:50:23;;;;;;;10.77;6.78;;;13.00;99.90;;;;;;5069915;28;20041;-67
2023/08/05 03:52:49;;;;;;;9.55;5.80;;;13.00;99.90;;;;;;5069728;28;20086;-67
2023/08/05 03:55:19;;;;;;;12.23;6.97;;;13.00;99.90;;;;;;5069601;28;20816;-67
2023/08/05 03:57:46;;;;;;;11.57;6.55;;;13.10;99.90;;;;;;5067836;28;20184;-68
2023/08/05 04:00:12;;;;;;;14.52;6.28;;;13.10;99.90;;;;;;5069328;28;20060;-67
2023/08/05 04:02:38;;;;;;;11.07;5.53;;;13.10;99.90;;;;;;5069259;28;20412;-67
2023/08/05 04:05:04;;;;;;;11.30;5.80;;;13.10;99.90;;;;;;5068101;28;20459;-67
2023/08/05 04:07:33;;;;;;;9.68;5.00;;;13.10;99.90;;;;;;5069176;28;20716;-67
2023/08/05 04:09:59;;;;;;;13.25;5.10;;;13.20;99.90;;;;;;5069191;28;20044;-67
2023/08/05 04:12:25;;;;;;;9.75;5.43;;;13.20;99.90;;;;;;5068765;28;20056;-67
2023/08/05 04:14:52;;;;;;;10.25;5.03;;;13.40;99.90;;;;;;5067779;28;20052;-67
2023/08/05 04:17:19;;;;;;;8.48;5.35;;;13.30;99.90;;;;;;5068904;28;20178;-67
2023/08/05 04:19:47;;;;;;;8.98;4.40;;;13.40;99.90;;;;;;5067290;28;20049;-68
2023/08/05 04:22:13;;;;;;;9.55;5.43;;;13.30;99.90;;;;;;5069496;28;20055;-67
2023/08/05 04:24:41;;;;;;;13.13;5.35;;;13.20;99.90;;;;;;5069510;28;20056;-67
2023/08/05 04:27:07;;;;;;;12.30;4.72;;;13.30;99.90;;;;;;5069194;28;20055;-67
2023/08/05 04:29:33;;;;;;;9.52;5.85;;;13.20;99.90;;;;;;5067655;28;20053;-67
2023/08/05 04:31:59;;;;;;;12.38;5.80;;;13.30;99.90;;;;;;5069072;28;20051;-67
2023/08/05 04:34:25;;;;;;;9.27;4.97;;;13.30;99.90;;;;;;5069274;28;20040;-67
2023/08/05 04:36:52;;;;;;;7.20;5.03;;;13.30;99.90;;;;;;5067964;28;20127;-67
2023/08/05 04:39:21;;;;;;;8.68;4.90;;;13.40;99.90;;;;;;5069065;28;20067;-67
2023/08/05 04:41:46;;;;;;;9.43;5.55;;;13.40;99.90;;;;;;5068660;28;20084;-67
2023/08/05 04:44:12;;;;;;;9.73;4.68;;;13.40;99.90;;;;;;5068916;28;20327;-67
2023/08/05 04:46:38;;;;;;;8.60;4.72;;;13.40;99.90;;;;;;5069099;28;20143;-68
2023/08/05 04:49:05;;;;;;;10.55;5.18;;;13.40;99.90;;;;;;5069004;28;20036;-67
2023/08/05 04:51:31;;;;;;;13.77;5.28;;;13.40;99.90;;;;;;5069291;28;20044;-67
2023/08/05 04:53:56;;;;;;;8.55;4.93;;;13.50;99.90;;;;;;5069022;28;20515;-67
2023/08/05 04:56:25;;;;;;;11.35;5.00;;;13.50;99.90;;;;;;5068957;28;20080;-67
2023/08/05 04:58:51;;;;;;;6.78;4.22;;;13.50;99.90;;;;;;5067877;28;20049;-67
2023/08/05 05:01:17;;;;;;;10.52;4.55;;;13.50;99.90;;;;;;5068575;28;20044;-67
2023/08/05 05:03:46;;;;;;;10.95;4.95;;;13.60;99.90;;;;;;5069108;28;20045;-67
2023/08/05 05:06:12;;;;;;;9.55;4.68;;;13.60;99.90;;;;;;5067733;28;20530;-67
2023/08/05 05:08:38;;;;;;;7.25;4.60;;;13.60;99.90;;;;;;5068834;28;20091;-67
2023/08/05 05:11:04;;;;;;;6.15;4.70;;;13.70;99.90;;;;;;5067574;28;20076;-67
2023/08/05 05:13:29;;;;;;;9.30;4.50;;;13.70;99.90;;;;;;5068653;28;20390;-66
2023/08/05 05:15:55;;;;;;;8.45;4.85;;;13.70;99.90;;;;;;5068526;28;20474;-68
2023/08/05 05:18:20;;;;;;;12.52;4.30;;;13.70;99.90;;;;;;5070155;28;20381;-67
2023/08/05 05:20:50;;;;;;;7.68;4.05;;;13.80;99.90;;;;;;5054623;28;20051;-67
2023/08/05 05:23:16;;;;;;;10.32;4.18;;;13.90;99.90;;;;;;5072134;28;20040;-68
2023/08/05 05:25:41;;;;;;;8.88;3.38;;;13.90;99.90;;;;;;5071024;28;20056;-67
2023/08/05 05:28:07;;;;;;;7.50;3.92;;;14.00;99.90;;;;;;5072041;28;20037;-68
2023/08/05 05:30:35;;;;;;;5.72;3.25;;;14.10;99.90;;;;;;5071652;28;20048;-67
2023/08/05 05:33:01;;;;;;;9.32;3.72;;;14.20;99.90;;;;;;5070636;28;20086;-68
2023/08/05 05:35:28;;;;;;;9.60;3.88;;;14.20;99.90;;;;;;5072197;28;20040;-68
2023/08/05 05:37:53;;;;;;;8.60;3.65;;;14.30;99.90;;;;;;5071959;28;20411;-68
2023/08/05 05:40:19;;;;;;;8.07;3.15;;;14.30;99.90;;;;;;5070976;28;20056;-67
2023/08/05 05:42:45;;;;;;;7.93;3.67;;;14.40;99.90;;;;;;5071892;28;20048;-67
2023/08/05 05:45:11;;;;;;;9.32;3.70;;;14.50;99.90;;;;;;5072011;28;20044;-68
2023/08/05 05:47:36;;;;;;;9.48;3.38;;;14.50;99.90;;;;;;5069914;28;20037;-68
2023/08/05 05:50:03;;;;;;;6.65;2.88;;;14.50;99.90;;;;;;5070032;28;20083;-68
2023/08/05 05:52:29;;;;;;;8.18;2.63;;;14.60;99.90;;;;;;5071554;28;20044;-66
2023/08/05 05:54:54;;;;;;;5.38;2.95;;;14.70;99.90;;;;;;5071787;28;20600;-68
2023/08/05 05:57:22;;;;;;;11.68;3.10;;;14.70;99.90;;;;;;5071447;28;20737;-67
2023/08/05 05:59:48;;;;;;;8.80;2.55;;;14.80;99.90;;;;;;5071503;28;20507;-67
2023/08/05 06:02:14;;;;;;;5.85;2.90;;;14.90;99.90;;;;;;5069717;28;20514;-67
2023/08/05 06:04:42;;;;;;;9.13;2.90;;;15.00;99.90;;;;;;5071566;28;20037;-67
2023/08/05 06:07:08;;;;;;;7.80;2.50;;;15.20;99.90;;;;;;5071161;28;20093;-68
2023/08/05 06:09:33;;;;;;;8.70;2.50;;;15.20;99.90;;;;;;5061845;28;20758;-68
2023/08/05 06:11:59;;;;;;;5.82;2.97;;;15.30;99.90;;;;;;5071473;28;20050;-68
2023/08/05 06:14:25;;;;;;;8.27;2.47;;;15.50;99.90;;;;;;5071227;28;20129;-68
2023/08/05 06:16:50;;;;;;;5.28;2.33;;;15.50;99.90;;;;;;5069505;28;20118;-68
2023/08/05 06:19:16;;;;;;;7.25;2.42;;;15.60;99.90;;;;;;5070451;28;20466;-67
2023/08/05 06:21:42;;;;;;;5.68;2.50;;;15.70;99.90;;;;;;5071291;28;20044;-69
2023/08/05 06:24:07;;;;;;;5.85;2.33;;;15.70;99.90;;;;;;5071188;28;20098;-68
2023/08/05 06:26:33;;;;;;;6.78;2.00;;;15.80;99.90;;;;;;5069332;28;20566;-68
2023/08/05 06:28:59;;;;;;;6.15;1.77;;;15.90;99.90;;;;;;5070904;28;20087;-68
2023/08/05 06:31:25;;;;;;;4.72;1.98;;;15.90;99.90;;;;;;5070812;28;20084;-67
2023/08/05 06:33:50;;;;;;;6.35;2.25;;;16.00;99.90;;;;;;5070291;28;20071;-67
2023/08/05 06:36:16;;;;;;;7.38;2.00;;;16.10;99.90;;;;;;5071137;28;20632;-68
2023/08/05 06:38:42;;;;;;;7.72;2.47;;;16.20;99.90;;;;;;5070448;28;20051;-68
2023/08/05 06:41:08;;;;;;;8.20;2.20;;;16.30;99.90;;;;;;5070828;28;20043;-68
2023/08/05 06:43:33;;;;;;;5.35;1.85;;;16.40;99.90;;;;;;5068936;28;20040;-68
2023/08/05 06:45:59;;;;;;;6.47;2.00;;;16.50;99.90;;;;;;5070641;28;20045;-68
2023/08/05 06:48:24;;;;;;;6.57;2.15;;;16.60;99.90;;;;;;5068606;28;20087;-69
2023/08/05 06:50:50;;;;;;;7.20;2.05;;;16.70;99.90;;;;;;5070837;28;20392;-68
2023/08/05 06:53:16;;;;;;;3.53;1.60;;;16.80;99.90;;;;;;5062045;28;20475;-68
2023/08/05 06:55:41;;;;;;;7.40;2.13;;;16.90;99.90;;;;;;5070473;28;20048;-68
2023/08/05 06:58:07;;;;;;;5.75;1.67;;;17.00;99.90;;;;;;5052050;28;20160;-68
2023/08/05 07:00:33;;;;;;;6.15;2.20;;;17.00;99.90;;;;;;5069927;28;20441;-68
2023/08/05 07:02:58;;;;;;;4.05;1.67;;;17.10;99.90;;;;;;5068691;28;20450;-69
2023/08/05 07:05:24;;;;;;;5.30;1.63;;;17.10;99.90;;;;;;5068869;28;20193;-68
2023/08/05 07:07:50;;;;;;;6.90;1.80;;;17.20;99.90;;;;;;5068634;28;20455;-68
2023/08/05 07:10:16;;;;;;;5.38;1.88;;;17.20;99.90;;;;;;5070242;28;20048;-68
2023/08/05 07:12:41;;;;;;;4.93;2.00;;;17.30;99.90;;;;;;5069124;28;20387;-69
2023/08/05 07:15:07;;;;;;;4.15;1.60;;;17.30;99.90;;;;;;5070091;28;20048;-68
2023/08/05 07:17:33;;;;;;;6.30;1.70;;;17.40;99.90;;;;;;5070088;28;20728;-68
2023/08/05 07:19:59;;;;;;;4.30;1.10;;;17.40;99.90;;;;;;5069700;28;20494;-69
2023/08/05 07:22:25;;;;;;;3.55;1.60;;;17.50;99.90;;;;;;5070193;28;20044;-68
2023/08/05 07:24:54;;;;;;;5.68;1.77;;;17.50;99.90;;;;;;5070306;28;20048;-68
2023/08/05 07:27:20;;;;;;;6.63;2.20;;;17.50;99.90;;;;;;5070097;28;20036;-68
2023/08/05 07:29:46;;;;;;;3.97;1.98;;;17.50;99.90;;;;;;5069707;28;20044;-69
2023/08/05 07:32:14;;;;;;;3.65;1.80;;;17.50;99.90;;;;;;5069948;28;20036;-68
2023/08/05 07:34:40;;;;;;;3.28;1.80;;;17.60;99.90;;;;;;5067970;28;20105;-69
2023/08/05 07:37:06;;;;;;;9.32;2.00;;;17.50;99.90;;;;;;5068171;28;20044;-68
2023/08/05 07:39:35;;;;;;;6.10;1.92;;;17.50;99.90;;;;;;5069644;28;20364;-67
2023/08/05 07:42:03;;;;;;;4.85;1.73;;;17.60;99.90;;;;;;5069841;28;20098;-68
2023/08/05 07:44:31;;;;;;;6.25;1.98;;;17.60;99.90;;;;;;5069936;28;20040;-68
2023/08/05 07:46:58;;;;;;;3.13;1.40;;;17.60;99.90;;;;;;5070166;28;20456;-69
2023/08/05 07:49:25;;;;;;;4.45;1.52;;;17.70;99.90;;;;;;5069537;28;20047;-69
2023/08/05 07:51:52;;;;;;;5.32;1.80;;;17.80;99.90;;;;;;5069880;28;20051;-68
2023/08/05 07:54:17;;;;;;;6.90;2.08;;;17.70;99.90;;;;;;5061434;28;20127;-69
2023/08/05 07:56:43;;;;;;;10.50;2.03;;;17.90;99.90;;;;;;5069553;28;20197;-68
2023/08/05 07:59:12;;;;;;;4.82;1.83;;;18.00;99.90;;;;;;5069708;28;20415;-70
2023/08/05 08:01:42;;;;;;;5.68;2.25;;;18.00;99.90;;;;;;5069600;28;20093;-68
2023/08/05 08:04:09;;;;;;;4.32;1.70;;;18.10;99.90;;;;;;5069500;28;20052;-68
2023/08/05 08:06:35;;;;;;;5.05;1.67;;;18.20;99.90;;;;;;5069465;28;20032;-69
2023/08/05 08:09:01;;;;;;;4.97;1.67;;;18.20;99.90;;;;;;5069511;28;20052;-69
2023/08/05 08:11:27;;;;;;;4.55;1.88;;;18.30;99.90;;;;;;5069829;28;20048;-69
2023/08/05 08:13:52;;;;;;;4.35;1.40;;;18.30;99.90;;;;;;5069471;28;20225;-69
2023/08/05 08:16:18;;;;;;;8.57;2.05;;;18.30;99.90;;;;;;5069453;28;20045;-68
2023/08/05 08:18:44;;;;;;;4.65;1.85;;;18.40;99.90;;;;;;5069199;28;20530;-69
2023/08/05 08:21:09;;;;;;;6.97;1.88;;;18.50;99.90;;;;;;5068039;28;20115;-68
2023/08/05 08:23:35;;;;;;;3.58;1.63;;;18.60;99.90;;;;;;5068951;28;20479;-69
2023/08/05 08:26:01;;;;;;;5.20;1.50;;;18.80;99.90;;;;;;5069547;28;20044;-68
2023/08/05 08:28:27;;;;;;;5.00;1.95;;;19.00;99.90;;;;;;5068395;28;20117;-68
2023/08/05 08:30:54;;;;;;;6.53;2.30;;;19.10;99.90;;;;;;5069409;28;20046;-68
2023/08/05 08:33:21;;;;;;;7.10;1.95;;;19.30;99.90;;;;;;5069082;28;20399;-69
2023/08/05 08:35:47;;;;;;;5.88;1.98;;;19.40;99.90;;;;;;5069278;28;20040;-68
2023/08/05 08:38:13;;;;;;;5.18;1.80;;;19.60;99.90;;;;;;5068777;28;20113;-68
2023/08/05 08:40:44;;;;;;;5.30;2.00;;;19.60;99.90;;;;;;5067775;28;20137;-67
2023/08/05 08:43:10;;;;;;;4.72;1.65;;;19.80;99.90;;;;;;5061693;28;20040;-69
2023/08/05 08:45:36;;;;;;;5.05;1.88;;;20.00;99.90;;;;;;5069588;28;20049;-69
2023/08/05 08:48:02;;;;;;;5.82;1.58;;;20.10;99.90;;;;;;5069342;28;20040;-68
2023/08/05 08:50:29;;;;;;;6.15;1.77;;;20.30;99.90;;;;;;5069274;28;20055;-68
2023/08/05 08:52:58;;;;;;;8.23;1.67;;;20.40;99.90;;;;;;5071496;28;20083;-68
2023/08/05 08:55:26;;;;;;;5.03;1.50;;;20.30;99.90;;;;;;5073189;28;20469;-68
2023/08/05 08:57:51;;;;;;;5.03;2.03;;;20.50;99.90;;;;;;5071403;28;20120;-69
2023/08/05 09:00:17;;;;;;;6.03;1.85;;;20.70;99.90;;;;;;5071417;28;20136;-69
2023/08/05 09:02:43;;;;;;;5.82;1.70;;;20.60;99.90;;;;;;5072637;28;20063;-68
2023/08/05 09:05:10;;;;;;;6.68;1.80;;;20.60;99.90;;;;;;5071196;28;20060;-69
2023/08/05 09:07:37;;;;;;;4.13;2.17;;;20.70;99.90;;;;;;5071471;28;20066;-69
2023/08/05 09:10:04;;;;;;;3.10;1.65;;;20.90;99.90;;;;;;5072993;28;20052;-69
2023/08/05 09:12:31;;;;;;;3.50;1.40;;;20.90;99.90;;;;;;5071185;28;20056;-70
2023/08/05 09:14:57;;;;;;;4.13;1.75;;;20.90;99.90;;;;;;5072642;28;20060;-69
2023/08/05 09:17:23;;;;;;;6.78;1.52;;;21.00;99.90;;;;;;5072645;28;20055;-69
2023/08/05 09:19:49;;;;;;;5.03;1.40;;;21.20;99.90;;;;;;5072389;28;20037;-70
2023/08/05 09:22:14;;;;;;;4.63;2.10;;;21.20;99.90;;;;;;5071010;28;20040;-70
2023/08/05 09:24:40;;;;;;;4.68;1.70;;;21.30;99.90;;;;;;5071525;28;20402;-69
2023/08/05 09:27:06;;;;;;;3.35;1.30;;;21.40;99.90;;;;;;5070832;28;20055;-69
2023/08/05 09:29:36;;;;;;;3.25;1.30;;;21.50;99.90;;;;;;5072178;28;20044;-70
2023/08/05 09:32:03;;;;;;;3.85;1.25;;;21.40;99.90;;;;;;5072260;28;20032;-75
2023/08/05 09:34:32;;;;;;;3.55;1.50;;;21.20;99.90;;;;;;5072078;28;20044;-68
2023/08/05 09:36:58;;;;;;;3.67;1.42;;;21.50;99.90;;;;;;5072436;28;20053;-67
2023/08/05 09:39:24;;;;;;;7.25;1.98;;;21.60;99.90;;;;;;5071689;28;20037;-70
2023/08/05 09:41:53;;;;;;;2.85;1.00;;;21.60;99.90;;;;;;5072182;28;20044;-71
2023/08/05 09:44:19;;;;;;;2.67;1.05;;;21.50;99.90;;;;;;5072196;28;20410;-68
2023/08/05 09:46:46;;;;;;;2.83;1.08;;;21.70;99.90;;;;;;5072082;28;20040;-68
2023/08/05 09:49:14;;;;;;;3.38;1.30;;;21.70;99.90;;;;;;5072023;28;20219;-67
2023/08/05 09:51:42;;;;;;;7.30;1.15;;;21.80;99.90;;;;;;5070700;28;20084;-69
2023/08/05 09:54:09;;;;;;;5.32;1.65;;;21.90;99.90;;;;;;5070191;28;20056;-70
2023/08/05 09:56:37;;;;;;;2.85;1.13;;;21.90;99.90;;;;;;5071598;28;20040;-68
2023/08/05 09:59:03;;;;;;;5.43;1.42;;;21.90;99.90;;;;;;5071661;28;20068;-68
2023/08/05 10:01:29;;;;;;;5.90;1.27;;;22.10;99.90;;;;;;5071832;28;20710;-69
2023/08/05 10:03:58;;;;;;;4.88;1.20;;;22.10;99.90;;;;;;5070859;28;20041;-68
2023/08/05 10:06:24;;;;;;;2.70;1.10;;;21.90;99.90;;;;;;5071354;28;20044;-67
2023/08/05 10:08:51;;;;;;;6.10;1.02;;;22.10;99.90;;;;;;5071276;28;20052;-67
2023/08/05 10:11:19;;;;;;;4.60;1.25;;;22.10;99.90;;;;;;5068830;28;20044;-75
2023/08/05 10:13:48;;;;;;;4.53;1.15;;;22.10;99.90;;;;;;5071433;28;20040;-70
2023/08/05 10:16:14;;;;;;;4.18;1.20;;;22.20;99.90;;;;;;5071213;28;20124;-70
2023/08/05 10:18:40;;;;;;;3.70;1.50;;;22.30;99.90;;;;;;5070383;28;20043;-71
2023/08/05 10:21:08;;;;;;;3.15;1.08;;;22.30;99.90;;;;;;5070677;28;20045;-70
2023/08/05 10:23:38;;;;;;;3.95;1.20;;;22.30;99.90;;;;;;5071080;28;20415;-67
2023/08/05 10:26:05;;;;;;;3.20;1.05;;;22.20;99.90;;;;;;5070873;28;20089;-68
2023/08/05 10:28:33;;;;;;;5.40;1.00;;;22.20;99.90;;;;;;5070422;28;20040;-68
2023/08/05 10:31:03;;;;;;;4.25;1.15;;;22.20;99.90;;;;;;5071250;28;20039;-69
2023/08/05 10:33:29;;;;;;;5.70;1.40;;;22.30;99.90;;;;;;5071119;28;20048;-69
2023/08/05 10:36:07;;;;;;;2.95;1.02;;;22.20;99.90;;;;;;5071053;28;20041;-68
2023/08/05 10:38:42;;;;;;;3.92;1.35;;;22.20;99.90;;;;;;5071261;28;20503;-71
2023/08/05 10:41:10;;;;;;;2.55;1.20;;;22.30;99.90;;;;;;5062546;28;20398;-69
2023/08/05 10:43:41;;;;;;;3.85;1.27;;;22.40;99.90;;;;;;5069689;28;20056;-69
2023/08/05 10:46:06;;;;;;;3.40;1.20;;;22.40;99.90;;;;;;5070699;28;20115;-69
2023/08/05 10:48:48;;;;;;;3.10;1.30;;;22.40;99.90;;;;;;5070771;28;20135;-70
2023/08/05 10:51:15;;;;;;;4.45;1.23;;;22.50;99.90;;;;;;5070579;28;20051;-69
2023/08/05 10:53:59;;;;;;;5.65;1.33;;;22.70;99.90;;;;;;5070631;28;20628;-68
2023/08/05 10:56:35;;;;;;;3.67;1.48;;;22.70;99.90;;;;;;5062482;28;20056;-68
2023/08/05 10:59:02;;;;;;;7.18;1.60;;;22.70;99.90;;;;;;5070596;28;20056;-69
2023/08/05 11:01:56;;;;;;;5.00;1.25;;;22.70;99.90;;;;;;5070537;28;20036;-68
2023/08/05 11:04:31;;;;;;;2.95;1.08;;;22.70;99.90;;;;;;5070218;28;20044;-68
2023/08/05 11:07:00;;;;;;;2.42;1.30;;;22.70;99.90;;;;;;5070457;28;20487;-69
2023/08/05 11:09:35;;;;;;;3.65;1.50;;;22.90;99.90;;;;;;5070441;28;20036;-69
2023/08/05 11:12:01;;;;;;;2.45;1.17;;;22.80;99.90;;;;;;5070228;28;20056;-68
2023/08/05 11:14:28;;;;;;;3.58;1.35;;;22.80;99.90;;;;;;5068758;28;20055;-72
2023/08/05 11:17:02;;;;;;;4.30;1.50;;;22.70;99.90;;;;;;5070066;28;20048;-70
2023/08/05 11:19:28;;;;;;;4.00;1.30;;;22.70;99.90;;;;;;5070315;28;20044;-69
2023/08/05 11:21:54;;;;;;;3.08;1.40;;;22.60;99.90;;;;;;5070177;28;20038;-70
2023/08/05 11:24:20;;;;;;;3.10;1.55;;;22.70;99.90;;;;;;5070239;28;20040;-69
2023/08/05 11:26:49;;;;;;;4.25;1.52;;;22.60;99.90;;;;;;5068451;28;20044;-69
2023/08/05 11:29:15;;;;;;;4.93;1.40;;;22.50;99.90;;;;;;5069939;28;20037;-70
2023/08/05 11:31:52;;;;;;;5.13;1.40;;;22.50;99.90;;;;;;5069868;28;20041;-70
2023/08/05 11:34:22;;;;;;;2.50;1.33;;;22.60;99.90;;;;;;5069892;28;20127;-69
2023/08/05 11:36:55;;;;;;;4.00;1.42;;;22.50;99.90;;;;;;5069822;28;20086;-70
2023/08/05 11:39:24;;;;;;;2.43;1.13;;;22.50;99.90;;;;;;5070301;28;20040;-71
2023/08/05 11:41:51;;;;;;;3.30;1.50;;;22.50;99.90;;;;;;5070027;28;20147;-68
2023/08/05 11:44:18;;;;;;;3.92;1.50;;;22.50;99.90;;;;;;5069725;28;20486;-68
2023/08/05 11:46:43;;;;;;;5.97;1.45;;;22.50;99.90;;;;;;5068549;28;20098;-67
2023/08/05 11:49:11;;;;;;;4.30;1.83;;;22.70;99.90;;;;;;5069564;28;20040;-69
2023/08/05 11:51:44;;;;;;;3.38;1.42;;;22.70;99.90;;;;;;5069915;28;20120;-69
2023/08/05 11:54:10;;;;;;;4.30;1.42;;;22.80;99.90;;;;;;5069781;28;20044;-68
2023/08/05 11:56:35;;;;;;;6.47;1.70;;;22.70;99.90;;;;;;5069247;28;20121;-70
2023/08/05 11:59:01;;;;;;;4.10;1.63;;;22.50;99.90;;;;;;5069583;28;20084;-68
2023/08/05 12:01:27;;;;;;;4.43;1.48;;;22.40;99.90;;;;;;5068284;28;20048;-68
2023/08/05 12:03:57;;;;;;;4.72;2.08;;;22.40;99.90;;;;;;5069802;28;20045;-70
2023/08/05 12:06:26;;;;;;;5.68;2.28;;;22.30;99.90;;;;;;5069467;28;20076;-70
2023/08/05 12:08:58;;;;;;;4.38;2.00;;;22.20;99.90;;;;;;5069598;28;20070;-68
2023/08/05 12:11:24;;;;;;;3.35;1.80;;;22.10;99.90;;;;;;5069371;28;20052;-68
2023/08/05 12:13:50;;;;;;;4.55;1.73;;;22.10;99.90;;;;;;5069410;28;20101;-72
2023/08/05 12:16:17;;;;;;;4.90;2.67;;;22.00;99.90;;;;;;5069377;28;20044;-70
2023/08/05 12:18:44;;;;;;;3.63;2.13;;;21.90;99.90;;;;;;5069634;28;20044;-70
2023/08/05 12:21:10;;;;;;;5.82;2.00;;;21.80;99.90;;;;;;5069539;28;20037;-69
2023/08/05 12:23:40;;;;;;;6.93;2.03;;;21.70;99.90;;;;;;5066540;28;20048;-68
2023/08/05 12:26:07;;;;;;;5.82;2.25;;;21.60;99.90;;;;;;5068816;28;20487;-73
2023/08/05 12:28:33;;;;;;;3.47;1.90;;;21.60;99.90;;;;;;5071622;28;20044;-68
2023/08/05 12:30:58;;;;;;;4.00;2.13;;;21.60;99.90;;;;;;5073725;28;20052;-69
2023/08/05 12:33:24;;;;;;;4.45;2.25;;;21.50;99.90;;;;;;5071575;28;20086;-68
2023/08/05 12:35:50;;;;;;;5.78;2.25;;;21.40;99.90;;;;;;5073609;28;20395;-68
2023/08/05 12:38:15;;;;;;;4.38;2.30;;;21.30;99.90;;;;;;5073285;28;20407;-68
2023/08/05 12:40:41;;;;;;;4.07;2.35;;;21.20;99.90;;;;;;5073181;28;20047;-68
2023/08/05 12:43:06;;;;;;;6.40;2.80;;;21.20;99.90;;;;;;5072877;28;20120;-69